South Londonderry, Vermont
Current Conditions -  °F | °C
As of 3:35 PM on Friday 28 Nov 2014 (Local Time) from KRUT Reporting Station
Broken Clouds Broken Clouds  
Wind Chill: -8°   Ceiling: 5500
Heat Index: -3°   Visibility: 10mi
Dew Point: -12°   Wind: 9mph
Humidity: 51%   Direction: 280°W
Pressure: 30.08"   Gusts: NA
Location:  43.15°N, 72.84°W
Report Text: KRUT 282035Z 28008KT 10SM FEW041 BKN055 M03/M12 A3008 RMK AO1
Loading
Personal Weather Stations






























Interactive Weather Map New forecast layout! Learn more

10-Day Weather Forecast

Advertisements
Track Severe Weather on mobile